Terminal Aerodrome Forecast
Issued by NWS Denver/Boulder, CO

Home | Current Version | Previous Version | Text Only | Print | Product List | Glossary On
Versions: 1 2 3 4 5 6 7 8 9 10 11 12 13 14 15 16 17 18 19 20 21 22 23 24 25 26 27 28 29 30 31 32 33 34 35 36 37 38
000
FTUS45 KBOU 221130
TAFDEN
TAF
KDEN 221130Z 2212/2318 20010KT P6SM FEW110 BKN160
     FM221500 VRB05KT P6SM FEW120 SCT170
     FM221800 17006KT P6SM FEW100 SCT170
     FM222100 14008KT P6SM SCT090 BKN130 PROB30 2222/2302 VRB20G30KT
      -TSRA BKN090CB
     FM230200 22011KT P6SM SCT090 BKN150
     FM231500 29007KT P6SM FEW100 SCT180
     FM231700 02010KT P6SM FEW090 SCT150 BKN200=

USA.gov is the U.S. government's official web portal to all federal, state and local government web resources and services.